sensor_id;sensor_type;location;lat;lon;timestamp;P1;durP1;ratioP1;P2;durP2;ratioP2
43996;SDS011;34318;45.818;15.964;2023-08-30T00:00:03;0.95;;;0.90;;
43996;SDS011;34318;45.818;15.964;2023-08-30T00:02:30;0.80;;;0.80;;
43996;SDS011;34318;45.818;15.964;2023-08-30T00:05:02;0.60;;;0.60;;
43996;SDS011;34318;45.818;15.964;2023-08-30T00:07:30;0.80;;;0.70;;
43996;SDS011;34318;45.818;15.964;2023-08-30T00:09:58;1.00;;;1.00;;
43996;SDS011;34318;45.818;15.964;2023-08-30T00:12:25;0.57;;;0.57;;
43996;SDS011;34318;45.818;15.964;2023-08-30T00:14:52;0.60;;;0.60;;
43996;SDS011;34318;45.818;15.964;2023-08-30T00:17:20;0.95;;;0.95;;
43996;SDS011;34318;45.818;15.964;2023-08-30T00:19:47;1.27;;;1.05;;
43996;SDS011;34318;45.818;15.964;2023-08-30T00:22:14;1.15;;;1.00;;
43996;SDS011;34318;45.818;15.964;2023-08-30T00:24:42;0.77;;;0.77;;
43996;SDS011;34318;45.818;15.964;2023-08-30T00:27:09;0.63;;;0.50;;
43996;SDS011;34318;45.818;15.964;2023-08-30T00:29:36;0.77;;;0.77;;
43996;SDS011;34318;45.818;15.964;2023-08-30T00:32:03;0.75;;;0.75;;
43996;SDS011;34318;45.818;15.964;2023-08-30T00:34:30;0.60;;;0.60;;
43996;SDS011;34318;45.818;15.964;2023-08-30T00:36:58;0.60;;;0.60;;
43996;SDS011;34318;45.818;15.964;2023-08-30T00:39:25;0.80;;;0.80;;
43996;SDS011;34318;45.818;15.964;2023-08-30T00:41:52;0.50;;;0.50;;
43996;SDS011;34318;45.818;15.964;2023-08-30T00:44:19;0.85;;;0.85;;
43996;SDS011;34318;45.818;15.964;2023-08-30T00:46:47;0.93;;;0.93;;
43996;SDS011;34318;45.818;15.964;2023-08-30T00:49:14;0.70;;;0.70;;
43996;SDS011;34318;45.818;15.964;2023-08-30T00:51:41;1.25;;;1.15;;
43996;SDS011;34318;45.818;15.964;2023-08-30T00:54:08;0.70;;;0.70;;
43996;SDS011;34318;45.818;15.964;2023-08-30T00:56:36;2.88;;;1.02;;
43996;SDS011;34318;45.818;15.964;2023-08-30T00:59:03;0.60;;;0.60;;
43996;SDS011;34318;45.818;15.964;2023-08-30T01:01:31;0.65;;;0.65;;
43996;SDS011;34318;45.818;15.964;2023-08-30T01:03:59;0.70;;;0.70;;
43996;SDS011;34318;45.818;15.964;2023-08-30T01:06:27;0.70;;;0.70;;
43996;SDS011;34318;45.818;15.964;2023-08-30T01:08:54;0.73;;;0.73;;
43996;SDS011;34318;45.818;15.964;2023-08-30T01:11:24;0.50;;;0.50;;
43996;SDS011;34318;45.818;15.964;2023-08-30T01:13:54;0.68;;;0.68;;
43996;SDS011;34318;45.818;15.964;2023-08-30T01:16:23;0.85;;;0.85;;
43996;SDS011;34318;45.818;15.964;2023-08-30T01:18:52;0.50;;;0.50;;
43996;SDS011;34318;45.818;15.964;2023-08-30T01:21:26;0.68;;;0.68;;
43996;SDS011;34318;45.818;15.964;2023-08-30T01:23:56;0.73;;;0.73;;
43996;SDS011;34318;45.818;15.964;2023-08-30T01:26:29;0.50;;;0.50;;
43996;SDS011;34318;45.818;15.964;2023-08-30T01:29:03;0.75;;;0.75;;
43996;SDS011;34318;45.818;15.964;2023-08-30T01:31:34;1.05;;;0.85;;
43996;SDS011;34318;45.818;15.964;2023-08-30T01:34:02;0.85;;;0.85;;
43996;SDS011;34318;45.818;15.964;2023-08-30T01:36:30;1.00;;;0.60;;
43996;SDS011;34318;45.818;15.964;2023-08-30T01:38:58;0.68;;;0.68;;
43996;SDS011;34318;45.818;15.964;2023-08-30T01:41:26;0.63;;;0.60;;
43996;SDS011;34318;45.818;15.964;2023-08-30T01:43:54;0.95;;;0.95;;
43996;SDS011;34318;45.818;15.964;2023-08-30T01:46:23;0.40;;;0.40;;
43996;SDS011;34318;45.818;15.964;2023-08-30T01:48:51;0.90;;;0.90;;
43996;SDS011;34318;45.818;15.964;2023-08-30T01:51:18;0.75;;;0.73;;
43996;SDS011;34318;45.818;15.964;2023-08-30T01:53:46;0.50;;;0.50;;
43996;SDS011;34318;45.818;15.964;2023-08-30T01:56:13;1.10;;;0.90;;
43996;SDS011;34318;45.818;15.964;2023-08-30T01:58:40;0.98;;;0.98;;
43996;SDS011;34318;45.818;15.964;2023-08-30T02:01:07;1.30;;;0.82;;
43996;SDS011;34318;45.818;15.964;2023-08-30T02:03:38;0.80;;;0.70;;
43996;SDS011;34318;45.818;15.964;2023-08-30T02:06:13;0.40;;;0.40;;
43996;SDS011;34318;45.818;15.964;2023-08-30T02:08:44;0.70;;;0.70;;
43996;SDS011;34318;45.818;15.964;2023-08-30T02:11:13;1.00;;;0.98;;
43996;SDS011;34318;45.818;15.964;2023-08-30T02:13:41;0.93;;;0.93;;
43996;SDS011;34318;45.818;15.964;2023-08-30T02:16:10;0.80;;;0.80;;
43996;SDS011;34318;45.818;15.964;2023-08-30T02:18:38;0.88;;;0.88;;
43996;SDS011;34318;45.818;15.964;2023-08-30T02:21:06;0.57;;;0.57;;
43996;SDS011;34318;45.818;15.964;2023-08-30T02:23:33;0.75;;;0.75;;
43996;SDS011;34318;45.818;15.964;2023-08-30T02:26:01;2.08;;;0.70;;
43996;SDS011;34318;45.818;15.964;2023-08-30T02:28:31;1.02;;;1.02;;
43996;SDS011;34318;45.818;15.964;2023-08-30T02:30:59;0.55;;;0.55;;
43996;SDS011;34318;45.818;15.964;2023-08-30T02:33:26;0.65;;;0.65;;
43996;SDS011;34318;45.818;15.964;2023-08-30T02:35:53;0.70;;;0.70;;
43996;SDS011;34318;45.818;15.964;2023-08-30T02:38:23;0.90;;;0.88;;
43996;SDS011;34318;45.818;15.964;2023-08-30T02:40:51;0.93;;;0.93;;
43996;SDS011;34318;45.818;15.964;2023-08-30T02:43:18;0.40;;;0.40;;
43996;SDS011;34318;45.818;15.964;2023-08-30T02:45:45;0.75;;;0.75;;
43996;SDS011;34318;45.818;15.964;2023-08-30T02:48:12;0.70;;;0.70;;
43996;SDS011;34318;45.818;15.964;2023-08-30T02:50:40;0.80;;;0.80;;
43996;SDS011;34318;45.818;15.964;2023-08-30T02:53:07;0.93;;;0.93;;
43996;SDS011;34318;45.818;15.964;2023-08-30T02:55:35;0.73;;;0.57;;
43996;SDS011;34318;45.818;15.964;2023-08-30T02:58:02;0.80;;;0.80;;
43996;SDS011;34318;45.818;15.964;2023-08-30T03:00:29;0.65;;;0.65;;
43996;SDS011;34318;45.818;15.964;2023-08-30T03:02:57;1.10;;;0.90;;
43996;SDS011;34318;45.818;15.964;2023-08-30T03:05:24;1.38;;;0.80;;
43996;SDS011;34318;45.818;15.964;2023-08-30T03:07:52;1.17;;;0.60;;
43996;SDS011;34318;45.818;15.964;2023-08-30T03:10:20;0.63;;;0.63;;
43996;SDS011;34318;45.818;15.964;2023-08-30T03:12:47;0.85;;;0.85;;
43996;SDS011;34318;45.818;15.964;2023-08-30T03:15:14;0.73;;;0.73;;
43996;SDS011;34318;45.818;15.964;2023-08-30T03:17:41;0.80;;;0.80;;
43996;SDS011;34318;45.818;15.964;2023-08-30T03:20:09;1.55;;;0.75;;
43996;SDS011;34318;45.818;15.964;2023-08-30T03:22:36;1.02;;;1.02;;
43996;SDS011;34318;45.818;15.964;2023-08-30T03:25:03;1.08;;;0.98;;
43996;SDS011;34318;45.818;15.964;2023-08-30T03:27:32;0.90;;;0.90;;
43996;SDS011;34318;45.818;15.964;2023-08-30T03:29:59;0.85;;;0.85;;
43996;SDS011;34318;45.818;15.964;2023-08-30T03:32:27;1.05;;;0.75;;
43996;SDS011;34318;45.818;15.964;2023-08-30T03:34:54;0.55;;;0.55;;
43996;SDS011;34318;45.818;15.964;2023-08-30T03:37:21;0.45;;;0.45;;
43996;SDS011;34318;45.818;15.964;2023-08-30T03:39:48;0.90;;;0.90;;
43996;SDS011;34318;45.818;15.964;2023-08-30T03:42:16;1.00;;;1.00;;
43996;SDS011;34318;45.818;15.964;2023-08-30T03:44:43;0.93;;;0.90;;
43996;SDS011;34318;45.818;15.964;2023-08-30T03:47:10;1.38;;;0.95;;
43996;SDS011;34318;45.818;15.964;2023-08-30T03:49:37;0.90;;;0.90;;
43996;SDS011;34318;45.818;15.964;2023-08-30T03:52:04;0.60;;;0.60;;
43996;SDS011;34318;45.818;15.964;2023-08-30T03:54:32;0.65;;;0.65;;
43996;SDS011;34318;45.818;15.964;2023-08-30T03:57:00;0.82;;;0.82;;
43996;SDS011;34318;45.818;15.964;2023-08-30T03:59:27;1.10;;;1.02;;
43996;SDS011;34318;45.818;15.964;2023-08-30T04:01:54;0.65;;;0.65;;
43996;SDS011;34318;45.818;15.964;2023-08-30T04:04:22;0.85;;;0.85;;
43996;SDS011;34318;45.818;15.964;2023-08-30T04:06:49;0.85;;;0.80;;
43996;SDS011;34318;45.818;15.964;2023-08-30T04:09:16;0.70;;;0.70;;
43996;SDS011;34318;45.818;15.964;2023-08-30T04:11:43;0.73;;;0.65;;
43996;SDS011;34318;45.818;15.964;2023-08-30T04:14:11;0.65;;;0.65;;
43996;SDS011;34318;45.818;15.964;2023-08-30T04:16:38;0.70;;;0.70;;
43996;SDS011;34318;45.818;15.964;2023-08-30T04:19:05;0.90;;;0.90;;
43996;SDS011;34318;45.818;15.964;2023-08-30T04:21:33;1.20;;;1.10;;
43996;SDS011;34318;45.818;15.964;2023-08-30T04:24:00;0.90;;;0.90;;
43996;SDS011;34318;45.818;15.964;2023-08-30T04:26:28;1.10;;;1.10;;
43996;SDS011;34318;45.818;15.964;2023-08-30T04:28:55;0.70;;;0.70;;
43996;SDS011;34318;45.818;15.964;2023-08-30T04:31:22;1.08;;;1.08;;
43996;SDS011;34318;45.818;15.964;2023-08-30T04:33:50;0.77;;;0.77;;
43996;SDS011;34318;45.818;15.964;2023-08-30T04:36:18;0.90;;;0.90;;
43996;SDS011;34318;45.818;15.964;2023-08-30T04:38:46;1.02;;;0.82;;
43996;SDS011;34318;45.818;15.964;2023-08-30T04:41:27;1.25;;;1.08;;
43996;SDS011;34318;45.818;15.964;2023-08-30T04:43:55;1.17;;;0.60;;
43996;SDS011;34318;45.818;15.964;2023-08-30T04:46:22;0.90;;;0.90;;
43996;SDS011;34318;45.818;15.964;2023-08-30T04:48:49;1.02;;;0.93;;
43996;SDS011;34318;45.818;15.964;2023-08-30T04:51:17;1.05;;;1.05;;
43996;SDS011;34318;45.818;15.964;2023-08-30T04:53:44;1.02;;;1.02;;
43996;SDS011;34318;45.818;15.964;2023-08-30T04:56:12;1.30;;;1.20;;
43996;SDS011;34318;45.818;15.964;2023-08-30T04:58:40;1.05;;;0.82;;
43996;SDS011;34318;45.818;15.964;2023-08-30T05:01:07;1.30;;;1.20;;
43996;SDS011;34318;45.818;15.964;2023-08-30T05:03:35;1.10;;;1.00;;
43996;SDS011;34318;45.818;15.964;2023-08-30T05:06:03;0.95;;;0.95;;
43996;SDS011;34318;45.818;15.964;2023-08-30T05:08:30;0.95;;;0.95;;
43996;SDS011;34318;45.818;15.964;2023-08-30T05:10:57;0.73;;;0.73;;
43996;SDS011;34318;45.818;15.964;2023-08-30T05:13:25;0.70;;;0.70;;
43996;SDS011;34318;45.818;15.964;2023-08-30T05:15:52;0.80;;;0.80;;
43996;SDS011;34318;45.818;15.964;2023-08-30T05:18:20;1.15;;;0.73;;
43996;SDS011;34318;45.818;15.964;2023-08-30T05:20:48;0.60;;;0.60;;
43996;SDS011;34318;45.818;15.964;2023-08-30T05:23:15;0.80;;;0.80;;
43996;SDS011;34318;45.818;15.964;2023-08-30T05:25:42;0.60;;;0.60;;
43996;SDS011;34318;45.818;15.964;2023-08-30T05:28:09;0.68;;;0.68;;
43996;SDS011;34318;45.818;15.964;2023-08-30T05:30:38;2.65;;;0.93;;
43996;SDS011;34318;45.818;15.964;2023-08-30T05:33:06;1.35;;;0.90;;
43996;SDS011;34318;45.818;15.964;2023-08-30T05:35:33;0.80;;;0.80;;
43996;SDS011;34318;45.818;15.964;2023-08-30T05:38:00;0.70;;;0.70;;
43996;SDS011;34318;45.818;15.964;2023-08-30T05:40:27;1.15;;;1.08;;
43996;SDS011;34318;45.818;15.964;2023-08-30T05:42:55;1.00;;;0.95;;
43996;SDS011;34318;45.818;15.964;2023-08-30T05:45:22;0.82;;;0.82;;
43996;SDS011;34318;45.818;15.964;2023-08-30T05:47:49;1.00;;;1.00;;
43996;SDS011;34318;45.818;15.964;2023-08-30T05:50:16;1.33;;;1.23;;
43996;SDS011;34318;45.818;15.964;2023-08-30T05:52:44;1.02;;;0.90;;
43996;SDS011;34318;45.818;15.964;2023-08-30T05:55:11;1.23;;;1.13;;
43996;SDS011;34318;45.818;15.964;2023-08-30T05:57:38;0.90;;;0.90;;
43996;SDS011;34318;45.818;15.964;2023-08-30T06:00:06;0.77;;;0.77;;
43996;SDS011;34318;45.818;15.964;2023-08-30T06:02:35;0.90;;;0.90;;
43996;SDS011;34318;45.818;15.964;2023-08-30T06:05:02;0.68;;;0.68;;
43996;SDS011;34318;45.818;15.964;2023-08-30T06:07:29;2.60;;;1.10;;
43996;SDS011;34318;45.818;15.964;2023-08-30T06:09:56;0.85;;;0.85;;
43996;SDS011;34318;45.818;15.964;2023-08-30T06:12:24;1.02;;;1.02;;
43996;SDS011;34318;45.818;15.964;2023-08-30T06:14:52;1.70;;;1.10;;
43996;SDS011;34318;45.818;15.964;2023-08-30T06:17:19;0.93;;;0.93;;
43996;SDS011;34318;45.818;15.964;2023-08-30T06:19:46;1.17;;;0.80;;
43996;SDS011;34318;45.818;15.964;2023-08-30T06:22:14;0.88;;;0.88;;
43996;SDS011;34318;45.818;15.964;2023-08-30T06:24:41;1.00;;;0.88;;
43996;SDS011;34318;45.818;15.964;2023-08-30T06:27:09;1.30;;;1.20;;
43996;SDS011;34318;45.818;15.964;2023-08-30T06:29:36;1.17;;;1.17;;
43996;SDS011;34318;45.818;15.964;2023-08-30T06:32:03;1.20;;;1.13;;
43996;SDS011;34318;45.818;15.964;2023-08-30T06:34:31;2.45;;;1.20;;
43996;SDS011;34318;45.818;15.964;2023-08-30T06:36:58;1.25;;;1.15;;
43996;SDS011;34318;45.818;15.964;2023-08-30T06:39:25;1.42;;;1.33;;
43996;SDS011;34318;45.818;15.964;2023-08-30T06:41:52;2.92;;;1.52;;
43996;SDS011;34318;45.818;15.964;2023-08-30T06:44:20;1.27;;;1.00;;
43996;SDS011;34318;45.818;15.964;2023-08-30T06:46:48;1.67;;;1.05;;
43996;SDS011;34318;45.818;15.964;2023-08-30T06:49:15;1.05;;;1.05;;
43996;SDS011;34318;45.818;15.964;2023-08-30T06:51:42;1.35;;;1.25;;
43996;SDS011;34318;45.818;15.964;2023-08-30T06:54:10;0.82;;;0.82;;
43996;SDS011;34318;45.818;15.964;2023-08-30T06:56:37;1.20;;;1.08;;
43996;SDS011;34318;45.818;15.964;2023-08-30T06:59:04;1.80;;;1.48;;
43996;SDS011;34318;45.818;15.964;2023-08-30T07:01:31;1.63;;;1.50;;
43996;SDS011;34318;45.818;15.964;2023-08-30T07:04:02;1.00;;;0.90;;
43996;SDS011;34318;45.818;15.964;2023-08-30T07:06:29;1.63;;;1.40;;
43996;SDS011;34318;45.818;15.964;2023-08-30T07:08:57;1.35;;;1.25;;
43996;SDS011;34318;45.818;15.964;2023-08-30T07:11:24;2.20;;;1.50;;
43996;SDS011;34318;45.818;15.964;2023-08-30T07:13:59;1.30;;;1.20;;
43996;SDS011;34318;45.818;15.964;2023-08-30T07:16:27;1.45;;;1.30;;
43996;SDS011;34318;45.818;15.964;2023-08-30T07:18:54;1.23;;;1.13;;
43996;SDS011;34318;45.818;15.964;2023-08-30T07:21:21;1.45;;;1.35;;
43996;SDS011;34318;45.818;15.964;2023-08-30T07:23:48;2.85;;;1.48;;
43996;SDS011;34318;45.818;15.964;2023-08-30T07:26:16;1.30;;;1.30;;
43996;SDS011;34318;45.818;15.964;2023-08-30T07:28:43;1.40;;;1.30;;
43996;SDS011;34318;45.818;15.964;2023-08-30T07:31:10;1.40;;;1.30;;
43996;SDS011;34318;45.818;15.964;2023-08-30T07:33:41;1.38;;;1.10;;
43996;SDS011;34318;45.818;15.964;2023-08-30T07:36:08;2.40;;;1.38;;
43996;SDS011;34318;45.818;15.964;2023-08-30T07:38:36;1.45;;;1.33;;
43996;SDS011;34318;45.818;15.964;2023-08-30T07:41:03;1.48;;;1.38;;
43996;SDS011;34318;45.818;15.964;2023-08-30T07:43:30;1.75;;;0.95;;
43996;SDS011;34318;45.818;15.964;2023-08-30T07:45:58;1.65;;;1.55;;
43996;SDS011;34318;45.818;15.964;2023-08-30T07:48:25;2.53;;;2.08;;
43996;SDS011;34318;45.818;15.964;2023-08-30T07:50:52;2.13;;;2.03;;
43996;SDS011;34318;45.818;15.964;2023-08-30T07:53:20;2.92;;;2.30;;
43996;SDS011;34318;45.818;15.964;2023-08-30T07:55:50;2.47;;;2.28;;
43996;SDS011;34318;45.818;15.964;2023-08-30T07:58:17;3.47;;;2.35;;
43996;SDS011;34318;45.818;15.964;2023-08-30T08:00:45;2.67;;;2.10;;
43996;SDS011;34318;45.818;15.964;2023-08-30T08:03:12;2.92;;;2.10;;
43996;SDS011;34318;45.818;15.964;2023-08-30T08:05:40;2.30;;;2.10;;
43996;SDS011;34318;45.818;15.964;2023-08-30T08:08:07;4.63;;;2.20;;
43996;SDS011;34318;45.818;15.964;2023-08-30T08:10:37;2.40;;;2.20;;
43996;SDS011;34318;45.818;15.964;2023-08-30T08:13:04;2.58;;;2.30;;
43996;SDS011;34318;45.818;15.964;2023-08-30T08:15:31;3.83;;;2.10;;
43996;SDS011;34318;45.818;15.964;2023-08-30T08:18:00;2.00;;;1.80;;
43996;SDS011;34318;45.818;15.964;2023-08-30T08:20:28;2.50;;;2.10;;
43996;SDS011;34318;45.818;15.964;2023-08-30T08:22:56;2.60;;;2.40;;
43996;SDS011;34318;45.818;15.964;2023-08-30T08:25:24;3.78;;;2.30;;
43996;SDS011;34318;45.818;15.964;2023-08-30T08:27:51;2.92;;;2.10;;
43996;SDS011;34318;45.818;15.964;2023-08-30T08:30:18;2.83;;;2.63;;
43996;SDS011;34318;45.818;15.964;2023-08-30T08:32:46;2.90;;;2.10;;
43996;SDS011;34318;45.818;15.964;2023-08-30T08:35:14;2.63;;;2.40;;
43996;SDS011;34318;45.818;15.964;2023-08-30T08:37:41;2.42;;;2.22;;
43996;SDS011;34318;45.818;15.964;2023-08-30T08:40:09;6.15;;;2.65;;
43996;SDS011;34318;45.818;15.964;2023-08-30T08:42:36;4.85;;;3.03;;
43996;SDS011;34318;45.818;15.964;2023-08-30T08:45:04;3.83;;;2.45;;
43996;SDS011;34318;45.818;15.964;2023-08-30T08:47:31;5.70;;;3.40;;
43996;SDS011;34318;45.818;15.964;2023-08-30T08:49:59;5.10;;;3.13;;
43996;SDS011;34318;45.818;15.964;2023-08-30T08:52:26;11.88;;;2.60;;
43996;SDS011;34318;45.818;15.964;2023-08-30T08:55:01;5.30;;;2.77;;
43996;SDS011;34318;45.818;15.964;2023-08-30T08:57:29;3.78;;;2.30;;
43996;SDS011;34318;45.818;15.964;2023-08-30T08:59:58;7.40;;;2.67;;
43996;SDS011;34318;45.818;15.964;2023-08-30T09:02:25;5.10;;;2.67;;
43996;SDS011;34318;45.818;15.964;2023-08-30T09:04:54;4.55;;;2.70;;
43996;SDS011;34318;45.818;15.964;2023-08-30T09:07:21;6.53;;;2.83;;
43996;SDS011;34318;45.818;15.964;2023-08-30T09:09:48;3.28;;;2.53;;
43996;SDS011;34318;45.818;15.964;2023-08-30T09:12:17;4.07;;;2.72;;
43996;SDS011;34318;45.818;15.964;2023-08-30T09:14:52;2.92;;;2.20;;
43996;SDS011;34318;45.818;15.964;2023-08-30T09:17:20;3.58;;;2.60;;
43996;SDS011;34318;45.818;15.964;2023-08-30T09:19:48;5.05;;;2.63;;
43996;SDS011;34318;45.818;15.964;2023-08-30T09:22:15;4.20;;;2.88;;
43996;SDS011;34318;45.818;15.964;2023-08-30T09:24:42;6.85;;;2.75;;
43996;SDS011;34318;45.818;15.964;2023-08-30T09:27:09;4.03;;;2.25;;
43996;SDS011;34318;45.818;15.964;2023-08-30T09:29:37;4.07;;;1.90;;
43996;SDS011;34318;45.818;15.964;2023-08-30T09:32:07;3.03;;;2.05;;
43996;SDS011;34318;45.818;15.964;2023-08-30T09:34:35;4.50;;;2.60;;
43996;SDS011;34318;45.818;15.964;2023-08-30T09:37:02;2.88;;;2.38;;
43996;SDS011;34318;45.818;15.964;2023-08-30T09:39:32;5.00;;;2.90;;
43996;SDS011;34318;45.818;15.964;2023-08-30T09:42:01;5.40;;;2.97;;
43996;SDS011;34318;45.818;15.964;2023-08-30T09:44:29;5.15;;;2.47;;
43996;SDS011;34318;45.818;15.964;2023-08-30T09:46:56;6.20;;;3.10;;
43996;SDS011;34318;45.818;15.964;2023-08-30T09:49:25;5.38;;;2.90;;
43996;SDS011;34318;45.818;15.964;2023-08-30T09:51:53;5.13;;;2.80;;
43996;SDS011;34318;45.818;15.964;2023-08-30T09:54:21;5.47;;;3.10;;
43996;SDS011;34318;45.818;15.964;2023-08-30T09:56:52;5.05;;;3.30;;
43996;SDS011;34318;45.818;15.964;2023-08-30T09:59:19;4.47;;;2.92;;
43996;SDS011;34318;45.818;15.964;2023-08-30T10:01:47;3.67;;;2.80;;
43996;SDS011;34318;45.818;15.964;2023-08-30T10:04:15;6.10;;;3.30;;
43996;SDS011;34318;45.818;15.964;2023-08-30T10:06:45;2.95;;;2.60;;
43996;SDS011;34318;45.818;15.964;2023-08-30T10:09:12;5.53;;;2.60;;
43996;SDS011;34318;45.818;15.964;2023-08-30T10:11:45;5.25;;;2.50;;
43996;SDS011;34318;45.818;15.964;2023-08-30T10:14:13;4.57;;;2.80;;
43996;SDS011;34318;45.818;15.964;2023-08-30T10:16:41;3.78;;;2.85;;
43996;SDS011;34318;45.818;15.964;2023-08-30T10:19:16;5.95;;;2.78;;
43996;SDS011;34318;45.818;15.964;2023-08-30T10:21:44;3.50;;;2.63;;
43996;SDS011;34318;45.818;15.964;2023-08-30T10:24:12;3.53;;;2.58;;
43996;SDS011;34318;45.818;15.964;2023-08-30T10:26:57;2.63;;;2.30;;
43996;SDS011;34318;45.818;15.964;2023-08-30T10:29:25;2.50;;;2.25;;
43996;SDS011;34318;45.818;15.964;2023-08-30T10:31:53;2.60;;;1.95;;
43996;SDS011;34318;45.818;15.964;2023-08-30T10:34:20;5.43;;;2.40;;
43996;SDS011;34318;45.818;15.964;2023-08-30T10:36:58;2.30;;;2.10;;
43996;SDS011;34318;45.818;15.964;2023-08-30T10:39:36;1.90;;;1.80;;
43996;SDS011;34318;45.818;15.964;2023-08-30T10:42:07;2.75;;;2.40;;
43996;SDS011;34318;45.818;15.964;2023-08-30T10:44:45;2.80;;;2.60;;
43996;SDS011;34318;45.818;15.964;2023-08-30T10:47:24;2.72;;;2.50;;
43996;SDS011;34318;45.818;15.964;2023-08-30T10:49:55;3.03;;;2.65;;
43996;SDS011;34318;45.818;15.964;2023-08-30T10:52:23;3.00;;;2.80;;
43996;SDS011;34318;45.818;15.964;2023-08-30T10:54:50;3.45;;;3.15;;
43996;SDS011;34318;45.818;15.964;2023-08-30T10:57:23;7.35;;;2.97;;
43996;SDS011;34318;45.818;15.964;2023-08-30T11:00:04;3.40;;;2.97;;
43996;SDS011;34318;45.818;15.964;2023-08-30T11:02:31;3.60;;;2.80;;
43996;SDS011;34318;45.818;15.964;2023-08-30T11:04:59;4.07;;;3.33;;
43996;SDS011;34318;45.818;15.964;2023-08-30T11:07:26;3.13;;;2.83;;
43996;SDS011;34318;45.818;15.964;2023-08-30T11:09:54;5.38;;;3.72;;
43996;SDS011;34318;45.818;15.964;2023-08-30T11:12:21;6.00;;;3.88;;
43996;SDS011;34318;45.818;15.964;2023-08-30T11:14:49;4.00;;;3.60;;
43996;SDS011;34318;45.818;15.964;2023-08-30T11:17:16;5.25;;;4.32;;
43996;SDS011;34318;45.818;15.964;2023-08-30T11:19:44;7.00;;;4.50;;
43996;SDS011;34318;45.818;15.964;2023-08-30T11:22:12;5.25;;;3.83;;
43996;SDS011;34318;45.818;15.964;2023-08-30T11:24:39;4.60;;;3.90;;
43996;SDS011;34318;45.818;15.964;2023-08-30T11:27:09;6.97;;;3.60;;
43996;SDS011;34318;45.818;15.964;2023-08-30T11:29:36;7.65;;;3.75;;
43996;SDS011;34318;45.818;15.964;2023-08-30T11:32:07;7.55;;;3.88;;
43996;SDS011;34318;45.818;15.964;2023-08-30T11:34:34;4.63;;;3.38;;
43996;SDS011;34318;45.818;15.964;2023-08-30T11:37:01;9.80;;;3.75;;
43996;SDS011;34318;45.818;15.964;2023-08-30T11:39:29;6.13;;;3.70;;
43996;SDS011;34318;45.818;15.964;2023-08-30T11:41:57;5.88;;;3.50;;
43996;SDS011;34318;45.818;15.964;2023-08-30T11:44:42;4.70;;;2.90;;
43996;SDS011;34318;45.818;15.964;2023-08-30T11:47:09;4.15;;;3.15;;
43996;SDS011;34318;45.818;15.964;2023-08-30T11:49:37;4.15;;;3.28;;
43996;SDS011;34318;45.818;15.964;2023-08-30T11:52:06;5.75;;;3.10;;
43996;SDS011;34318;45.818;15.964;2023-08-30T11:54:33;3.60;;;2.70;;
43996;SDS011;34318;45.818;15.964;2023-08-30T11:57:00;4.35;;;2.83;;
43996;SDS011;34318;45.818;15.964;2023-08-30T11:59:29;4.43;;;3.00;;
43996;SDS011;34318;45.818;15.964;2023-08-30T12:01:57;4.60;;;2.75;;
43996;SDS011;34318;45.818;15.964;2023-08-30T12:04:25;4.07;;;2.78;;
43996;SDS011;34318;45.818;15.964;2023-08-30T12:06:52;3.13;;;2.83;;
43996;SDS011;34318;45.818;15.964;2023-08-30T12:09:20;8.80;;;2.70;;
43996;SDS011;34318;45.818;15.964;2023-08-30T12:11:51;4.97;;;3.08;;
43996;SDS011;34318;45.818;15.964;2023-08-30T12:14:18;3.95;;;2.53;;
43996;SDS011;34318;45.818;15.964;2023-08-30T12:16:45;4.88;;;2.92;;
43996;SDS011;34318;45.818;15.964;2023-08-30T12:19:13;6.28;;;2.83;;
43996;SDS011;34318;45.818;15.964;2023-08-30T12:21:41;5.18;;;2.53;;
43996;SDS011;34318;45.818;15.964;2023-08-30T12:24:09;2.53;;;2.20;;
43996;SDS011;34318;45.818;15.964;2023-08-30T12:26:37;5.95;;;2.72;;
43996;SDS011;34318;45.818;15.964;2023-08-30T12:29:04;4.70;;;2.30;;
43996;SDS011;34318;45.818;15.964;2023-08-30T12:31:34;3.25;;;2.33;;
43996;SDS011;34318;45.818;15.964;2023-08-30T12:34:02;3.72;;;2.30;;
43996;SDS011;34318;45.818;15.964;2023-08-30T12:36:29;3.33;;;1.88;;
43996;SDS011;34318;45.818;15.964;2023-08-30T12:38:58;4.30;;;2.30;;
43996;SDS011;34318;45.818;15.964;2023-08-30T12:41:25;3.63;;;2.13;;
43996;SDS011;34318;45.818;15.964;2023-08-30T12:43:52;4.40;;;1.77;;
43996;SDS011;34318;45.818;15.964;2023-08-30T12:46:20;1.92;;;1.83;;
43996;SDS011;34318;45.818;15.964;2023-08-30T12:48:47;2.08;;;1.85;;
43996;SDS011;34318;45.818;15.964;2023-08-30T12:51:14;5.00;;;2.42;;
43996;SDS011;34318;45.818;15.964;2023-08-30T12:53:42;2.20;;;2.00;;
43996;SDS011;34318;45.818;15.964;2023-08-30T12:56:09;2.88;;;2.05;;
43996;SDS011;34318;45.818;15.964;2023-08-30T12:58:36;2.50;;;2.30;;
43996;SDS011;34318;45.818;15.964;2023-08-30T13:01:04;2.40;;;2.20;;
43996;SDS011;34318;45.818;15.964;2023-08-30T13:03:34;4.93;;;2.70;;
43996;SDS011;34318;45.818;15.964;2023-08-30T13:06:01;6.22;;;3.70;;
43996;SDS011;34318;45.818;15.964;2023-08-30T13:08:30;12.35;;;5.25;;
43996;SDS011;34318;45.818;15.964;2023-08-30T13:11:00;6.43;;;4.75;;
43996;SDS011;34318;45.818;15.964;2023-08-30T13:13:28;9.05;;;4.68;;
43996;SDS011;34318;45.818;15.964;2023-08-30T13:15:55;9.63;;;4.63;;
43996;SDS011;34318;45.818;15.964;2023-08-30T13:18:22;9.45;;;6.28;;
43996;SDS011;34318;45.818;15.964;2023-08-30T13:20:49;9.00;;;7.00;;
43996;SDS011;34318;45.818;15.964;2023-08-30T13:23:17;14.57;;;7.97;;
43996;SDS011;34318;45.818;15.964;2023-08-30T13:25:44;12.40;;;6.95;;
43996;SDS011;34318;45.818;15.964;2023-08-30T13:28:11;19.25;;;6.78;;
43996;SDS011;34318;45.818;15.964;2023-08-30T13:30:43;21.83;;;8.27;;
43996;SDS011;34318;45.818;15.964;2023-08-30T13:33:11;18.02;;;6.47;;
43996;SDS011;34318;45.818;15.964;2023-08-30T13:35:39;13.88;;;6.15;;
43996;SDS011;34318;45.818;15.964;2023-08-30T13:38:06;11.77;;;5.53;;
43996;SDS011;34318;45.818;15.964;2023-08-30T13:40:34;8.60;;;4.70;;
43996;SDS011;34318;45.818;15.964;2023-08-30T13:43:01;8.20;;;4.75;;
43996;SDS011;34318;45.818;15.964;2023-08-30T13:45:29;9.20;;;4.40;;
43996;SDS011;34318;45.818;15.964;2023-08-30T13:47:56;9.90;;;5.60;;
43996;SDS011;34318;45.818;15.964;2023-08-30T13:50:23;10.85;;;4.80;;
43996;SDS011;34318;45.818;15.964;2023-08-30T13:52:56;14.80;;;4.75;;
43996;SDS011;34318;45.818;15.964;2023-08-30T13:55:23;11.30;;;5.75;;
43996;SDS011;34318;45.818;15.964;2023-08-30T13:57:51;7.70;;;4.55;;
43996;SDS011;34318;45.818;15.964;2023-08-30T14:00:18;9.85;;;4.88;;
43996;SDS011;34318;45.818;15.964;2023-08-30T14:02:45;8.65;;;4.68;;
43996;SDS011;34318;45.818;15.964;2023-08-30T14:05:13;10.68;;;4.28;;
43996;SDS011;34318;45.818;15.964;2023-08-30T14:07:40;10.65;;;4.13;;
43996;SDS011;34318;45.818;15.964;2023-08-30T14:10:07;9.13;;;4.65;;
43996;SDS011;34318;45.818;15.964;2023-08-30T14:12:35;9.90;;;4.57;;
43996;SDS011;34318;45.818;15.964;2023-08-30T14:15:02;7.00;;;5.45;;
43996;SDS011;34318;45.818;15.964;2023-08-30T14:17:29;10.43;;;7.05;;
43996;SDS011;34318;45.818;15.964;2023-08-30T14:19:57;9.15;;;6.20;;
43996;SDS011;34318;45.818;15.964;2023-08-30T14:22:24;6.10;;;5.13;;
43996;SDS011;34318;45.818;15.964;2023-08-30T14:24:51;6.40;;;5.57;;
43996;SDS011;34318;45.818;15.964;2023-08-30T14:27:23;8.73;;;7.25;;
43996;SDS011;34318;45.818;15.964;2023-08-30T14:29:50;8.57;;;7.88;;
43996;SDS011;34318;45.818;15.964;2023-08-30T14:32:17;10.18;;;8.65;;
43996;SDS011;34318;45.818;15.964;2023-08-30T14:34:44;9.60;;;8.32;;
43996;SDS011;34318;45.818;15.964;2023-08-30T14:37:12;8.77;;;7.63;;